Search for airport 
image banner adimage banner adimage banner ad
image banner ad

CCG3 - Weyman Airpark

Located in Keswick, Canada

ICAO - CCG3, IATA -

Data provided by Airmate  

General information

Coordinates: N46°2'15" W66°51'32"
Elevation is 140 feet MSL.
Magnetic variation is -17.4167° East
View others Airports in New Brunswick

Operational data

Special qualification required
Current time UTC:
Current local time:
Weather at : CYFC - Fredericton Intl ( 31 km )
METAR: CYFC 062300Z AUTO 18014G22KT 9SM OVC019 12/11 A2959 RMK SLP021 DENSITY ALT 100FT
TAF: TAF AMD CYFC 062138Z 0621/0706 15012KT 2SM -RA -DZ BR OVC006 TEMPO 0621/0624 P6SM NSW SCT006 OVC012 BECMG 0622/0624 19015G30KT FM070000 19020G30KT P6SM OVC020 TEMPO 0700/0703 5SM -DZ BR FM070300 20020G30KT 6SM -RA BR OVC015 TEMPO 0703/0706 3SM -SHRA BR OVC008 RMK FCST BASED ON AUTO OBS. NXT FCST BY 070000Z
View NOTAMs / SUP AIP / TFR affecting this airport [VIEW]
Communications frequencies: [VIEW]

Runways:

RWY identifierQFULength (ft)Width (ft)SurfaceLDA (ft)
05300080SAND
23300080SAND

Airport contact information

Address: Keswick Canada

Satellite view of CCG3